Vg 117 Kungsvik — SBTH — position and weather

sailwx.info

Track history (hours):
 
Tides and Currents Weather Stations Pressure Air Temp Water Temp Dewpoint Dewpoint Depression Visibility Wind Speed Wind Dir Waves Ship Positions

Vg 117 Kungsvik

Last reported at 2015-May-26 12:17 UTC. Time now 2015-May-27 03:31 UTC.
Position N 55°25' E 014°46'.

Length 17 m.

Type: Fishing. MMSI: 266137000.

Date/timePositionNaut miles runAvg speedWind from/ knotsBaromVisibWave heightAir tempDewpointWater temp
2015-May-26 12:17N 55°25' E 014°46'2 2.5
2015-May-26 11:32N 55°25' E 014°49'2 2.2
2015-May-26 10:33N 55°27' E 014°50'4 1.4
2015-May-26 07:32N 55°28' E 014°42'2 0.1
2015-May-25 14:34N 55°28' E 014°46'3 2.7
2015-May-25 13:33N 55°27' E 014°50'1 1.0
2015-May-25 12:22N 55°28' E 014°50'3 2.8
2015-May-25 11:27N 55°26' E 014°47'3 2.8
2015-May-25 10:30N 55°25' E 014°51'3 1.0
2015-May-25 07:19N 55°26' E 014°45'2 2.7
2015-May-25 06:33N 55°26' E 014°49'  
2015-May-21 11:33N 55°25' E 014°47'1 0.2
2015-May-21 06:31N 55°26' E 014°48'3 0.1
2015-May-20 11:09N 55°27' E 014°44'2 2.8
2015-May-20 10:32N 55°27' E 014°47'3 2.7
2015-May-20 09:33N 55°26' E 014°51'3 2.6
2015-May-20 08:33N 55°23' E 014°53'1 0.7
2015-May-20 07:33N 55°24' E 014°54'3 2.6
2015-May-20 06:32N 55°26' E 014°51'3 0.2
2015-May-19 13:18N 55°27' E 014°47'16 1.1
2015-May-18 23:12N 55°33' E 014°22'0 0.0
2015-May-18 22:24N 55°33' E 014°22'0 0.0
2015-May-18 21:30N 55°33' E 014°22'0 0.0
2015-May-18 20:12N 55°33' E 014°22'0 0.0
2015-May-18 19:30N 55°33' E 014°22'0 0.0
2015-May-18 18:30N 55°33' E 014°22'0 0.0
2015-May-18 17:30N 55°33' E 014°22'0 0.0
2015-May-18 16:30N 55°33' E 014°22'1 1.1
2015-May-18 15:33N 55°33' E 014°23'3 2.7
2015-May-18 14:28N 55°30' E 014°25'8 3.6
2015-May-18 12:06N 55°28' E 014°40'0 0.6
2015-May-18 11:33N 55°28' E 014°39'0 0.5
2015-May-18 10:33N 55°28' E 014°38'3 2.6
2015-May-18 09:32N 55°28' E 014°43'2 2.3
2015-May-18 08:33N 55°28' E 014°47'2 2.5
2015-May-18 07:33N 55°29' E 014°43'3 2.9
2015-May-18 06:33N 55°27' E 014°38'5 5.0
2015-May-18 05:33N 55°29' E 014°30'6 4.9
2015-May-18 04:16N 55°33' E 014°22'0 0.0
2015-May-18 03:16N 55°33' E 014°22'  
Track history (hours):
 
Tides and Currents Weather Stations Pressure Air Temp Water Temp Dewpoint Dewpoint Depression Visibility Wind Speed Wind Dir Waves Ship Positions

Vg 117 Kungsvik

Last reported at 2015-May-26 12:17 UTC. Time now 2015-May-27 03:31 UTC.
Position N 55°25' E 014°46'.

Length 17 m.

Type: Fishing. MMSI: 266137000.

Date/timePositionNaut miles runAvg speedWind from/ knotsBaromVisibWave heightAir tempDewpointWater temp
2015-May-26 12:17N 55°25' E 014°46'2 2.5
2015-May-26 11:32N 55°25' E 014°49'2 2.2
2015-May-26 10:33N 55°27' E 014°50'4 1.4
2015-May-26 07:32N 55°28' E 014°42'2 0.1
2015-May-25 14:34N 55°28' E 014°46'3 2.7
2015-May-25 13:33N 55°27' E 014°50'1 1.0
2015-May-25 12:22N 55°28' E 014°50'3 2.8
2015-May-25 11:27N 55°26' E 014°47'3 2.8
2015-May-25 10:30N 55°25' E 014°51'3 1.0
2015-May-25 07:19N 55°26' E 014°45'2 2.7
2015-May-25 06:33N 55°26' E 014°49'  
2015-May-21 11:33N 55°25' E 014°47'1 0.2
2015-May-21 06:31N 55°26' E 014°48'3 0.1
2015-May-20 11:09N 55°27' E 014°44'2 2.8
2015-May-20 10:32N 55°27' E 014°47'3 2.7
2015-May-20 09:33N 55°26' E 014°51'3 2.6
2015-May-20 08:33N 55°23' E 014°53'1 0.7
2015-May-20 07:33N 55°24' E 014°54'3 2.6
2015-May-20 06:32N 55°26' E 014°51'3 0.2
2015-May-19 13:18N 55°27' E 014°47'16 1.1
2015-May-18 23:12N 55°33' E 014°22'0 0.0
2015-May-18 22:24N 55°33' E 014°22'0 0.0
2015-May-18 21:30N 55°33' E 014°22'0 0.0
2015-May-18 20:12N 55°33' E 014°22'0 0.0
2015-May-18 19:30N 55°33' E 014°22'0 0.0
2015-May-18 18:30N 55°33' E 014°22'0 0.0
2015-May-18 17:30N 55°33' E 014°22'0 0.0
2015-May-18 16:30N 55°33' E 014°22'1 1.1
2015-May-18 15:33N 55°33' E 014°23'3 2.7
2015-May-18 14:28N 55°30' E 014°25'8 3.6
2015-May-18 12:06N 55°28' E 014°40'0 0.6
2015-May-18 11:33N 55°28' E 014°39'0 0.5
2015-May-18 10:33N 55°28' E 014°38'3 2.6
2015-May-18 09:32N 55°28' E 014°43'2 2.3
2015-May-18 08:33N 55°28' E 014°47'2 2.5
2015-May-18 07:33N 55°29' E 014°43'3 2.9
2015-May-18 06:33N 55°27' E 014°38'5 5.0
2015-May-18 05:33N 55°29' E 014°30'6 4.9
2015-May-18 04:16N 55°33' E 014°22'0 0.0
2015-May-18 03:16N 55°33' E 014°22'  

Dump ship's entire track history